Time;durP1;ratioP1;P1;durP2;ratioP2;P2;SDS_P1;SDS_P2;PMS_P1;PMS_P2;Temp;Humidity;BMP_temperature;BMP_pressure;BME280_temperature;BME280_humidity;BME280_pressure;Samples;Min_cycle;Max_cycle;Signal;HPM_P1;HPM_P2
2022/07/22 00:01:11;;;;;;;;;26.25;24.50;;;;;;;;5025171;28;51037;-70
2022/07/22 00:03:37;;;;;;;;;25.50;25.50;;;;;;;;5006603;28;51270;-70
2022/07/22 00:06:02;;;;;;;;;27.75;25.50;;;;;;;;5013075;28;51158;-68
2022/07/22 00:08:27;;;;;;;;;30.75;29.25;;;;;;;;5011725;28;51116;-68
2022/07/22 00:10:53;;;;;;;;;28.25;25.75;;;;;;;;5012881;28;51284;-70
2022/07/22 00:13:18;;;;;;;;;29.00;28.75;;;;;;;;5012772;28;52117;-70
2022/07/22 00:15:43;;;;;;;;;24.75;23.00;;;;;;;;5012596;28;51027;-70
2022/07/22 00:18:08;;;;;;;;;29.50;24.50;;;;;;;;5014862;28;51243;-70
2022/07/22 00:20:33;;;;;;;;;28.25;27.00;;;;;;;;5016379;28;50842;-68
2022/07/22 00:22:59;;;;;;;;;24.75;23.00;;;;;;;;5012802;28;51917;-70
2022/07/22 00:25:24;;;;;;;;;23.75;23.25;;;;;;;;5013241;28;51035;-70
2022/07/22 00:27:49;;;;;;;;;30.50;27.25;;;;;;;;4991260;28;51158;-70
2022/07/22 00:30:14;;;;;;;;;27.50;26.50;;;;;;;;5031024;28;51203;-70
2022/07/22 00:32:40;;;;;;;;;24.00;21.75;;;;;;;;5011483;28;51033;-69
2022/07/22 00:35:05;;;;;;;;;24.75;24.25;;;;;;;;5012592;28;51136;-70
2022/07/22 00:37:30;;;;;;;;;25.50;24.75;;;;;;;;5012631;28;50993;-70
2022/07/22 00:39:56;;;;;;;;;23.25;23.00;;;;;;;;5013023;28;50956;-69
2022/07/22 00:42:21;;;;;;;;;24.75;24.25;;;;;;;;5011354;28;51583;-69
2022/07/22 00:44:46;;;;;;;;;24.50;24.00;;;;;;;;5010351;28;51132;-70
2022/07/22 00:47:11;;;;;;;;;25.25;24.00;;;;;;;;5022473;28;51036;-69
2022/07/22 00:49:37;;;;;;;;;22.50;22.25;;;;;;;;5013108;28;50865;-69
2022/07/22 00:52:03;;;;;;;;;24.25;22.25;;;;;;;;5012033;28;51604;-69
2022/07/22 00:54:28;;;;;;;;;22.75;22.00;;;;;;;;4985158;28;51192;-69
2022/07/22 00:56:54;;;;;;;;;25.50;23.25;;;;;;;;5009454;28;51275;-68
2022/07/22 00:59:19;;;;;;;;;22.00;20.75;;;;;;;;5017126;28;51354;-69
2022/07/22 01:01:44;;;;;;;;;23.50;22.50;;;;;;;;5018574;28;51074;-70
2022/07/22 01:04:10;;;;;;;;;24.25;22.75;;;;;;;;5023364;28;51090;-70
2022/07/22 01:06:35;;;;;;;;;23.00;22.75;;;;;;;;5012651;28;51302;-69
2022/07/22 01:09:00;;;;;;;;;24.75;24.00;;;;;;;;4999291;28;51177;-69
2022/07/22 01:11:26;;;;;;;;;17.50;16.75;;;;;;;;5012293;28;51873;-69
2022/07/22 01:13:52;;;;;;;;;21.25;20.50;;;;;;;;5005840;28;50908;-69
2022/07/22 01:16:18;;;;;;;;;25.00;23.00;;;;;;;;4997104;28;51112;-69
2022/07/22 01:18:43;;;;;;;;;20.50;18.00;;;;;;;;4999497;28;51317;-69
2022/07/22 01:21:09;;;;;;;;;20.50;20.00;;;;;;;;4993786;28;52186;-69
2022/07/22 01:23:34;;;;;;;;;21.25;19.75;;;;;;;;5010784;28;50981;-69
2022/07/22 01:26:00;;;;;;;;;21.50;20.50;;;;;;;;5011968;28;50915;-69
2022/07/22 01:28:25;;;;;;;;;20.75;19.75;;;;;;;;4994584;28;51374;-69
2022/07/22 01:30:50;;;;;;;;;19.25;19.00;;;;;;;;4993918;28;51104;-69
2022/07/22 01:33:20;;;;;;;;;19.75;18.75;;;;;;;;4994191;28;51066;-69
2022/07/22 01:35:45;;;;;;;;;23.00;21.00;;;;;;;;5005135;28;51110;-68
2022/07/22 01:38:11;;;;;;;;;21.50;21.50;;;;;;;;4999033;28;51331;-69
2022/07/22 01:40:36;;;;;;;;;21.50;19.75;;;;;;;;5012078;28;51926;-69
2022/07/22 01:43:01;;;;;;;;;24.00;23.75;;;;;;;;5011720;28;51008;-69
2022/07/22 01:45:27;;;;;;;;;23.75;22.75;;;;;;;;4989660;28;51034;-70
2022/07/22 01:47:52;;;;;;;;;20.25;20.00;;;;;;;;5005491;28;51332;-70
2022/07/22 01:50:17;;;;;;;;;22.50;21.25;;;;;;;;5004394;28;51095;-69
2022/07/22 01:52:42;;;;;;;;;23.75;20.00;;;;;;;;4992511;28;51000;-69
2022/07/22 01:55:08;;;;;;;;;23.75;22.50;;;;;;;;4992785;28;50782;-69
2022/07/22 01:57:35;;;;;;;;;20.00;19.50;;;;;;;;5010460;28;51235;-69
2022/07/22 02:00:00;;;;;;;;;20.00;20.00;;;;;;;;5012121;28;51108;-69
2022/07/22 02:02:25;;;;;;;;;24.50;23.00;;;;;;;;4992242;28;50965;-68
2022/07/22 02:04:50;;;;;;;;;21.50;20.00;;;;;;;;4995241;28;51135;-68
2022/07/22 02:07:16;;;;;;;;;20.25;20.00;;;;;;;;5008298;28;51293;-69
2022/07/22 02:09:41;;;;;;;;;19.00;19.00;;;;;;;;4993398;28;51103;-70
2022/07/22 02:12:06;;;;;;;;;22.75;21.75;;;;;;;;5011823;28;50882;-68
2022/07/22 02:14:31;;;;;;;;;18.25;17.75;;;;;;;;5004052;28;51102;-68
2022/07/22 02:16:57;;;;;;;;;21.00;19.25;;;;;;;;4996386;28;51223;-69
2022/07/22 02:19:22;;;;;;;;;19.75;19.00;;;;;;;;4991712;28;50983;-70
2022/07/22 02:21:47;;;;;;;;;19.00;18.50;;;;;;;;4991668;28;51218;-69
2022/07/22 02:24:12;;;;;;;;;18.50;18.00;;;;;;;;4974623;28;51031;-69
2022/07/22 02:26:38;;;;;;;;;25.25;21.00;;;;;;;;5002773;28;51158;-68
2022/07/22 02:29:03;;;;;;;;;22.00;19.75;;;;;;;;4991635;28;52001;-69
2022/07/22 02:31:28;;;;;;;;;23.75;23.00;;;;;;;;4993107;28;51092;-70
2022/07/22 02:33:54;;;;;;;;;18.50;18.50;;;;;;;;4999591;28;50986;-71
2022/07/22 02:36:19;;;;;;;;;21.75;21.00;;;;;;;;5012977;28;51351;-70
2022/07/22 02:38:44;;;;;;;;;23.75;22.00;;;;;;;;4994522;28;51184;-70
2022/07/22 02:41:10;;;;;;;;;19.50;18.25;;;;;;;;4999390;28;51042;-70
2022/07/22 02:43:35;;;;;;;;;17.50;14.25;;;;;;;;5010366;28;51084;-70
2022/07/22 02:46:00;;;;;;;;;20.00;19.00;;;;;;;;5015253;28;51057;-70
2022/07/22 02:48:25;;;;;;;;;22.50;21.50;;;;;;;;4997973;28;51569;-69
2022/07/22 02:50:50;;;;;;;;;19.00;18.00;;;;;;;;5000049;28;51038;-69
2022/07/22 02:53:16;;;;;;;;;19.25;19.00;;;;;;;;5013312;28;51183;-69
2022/07/22 02:55:41;;;;;;;;;24.00;21.00;;;;;;;;5011205;28;51272;-69
2022/07/22 02:58:07;;;;;;;;;19.50;16.50;;;;;;;;4995478;28;52079;-69
2022/07/22 03:00:32;;;;;;;;;21.25;19.75;;;;;;;;5001240;28;51185;-69
2022/07/22 03:02:58;;;;;;;;;19.00;16.75;;;;;;;;4996326;28;51090;-69
2022/07/22 03:05:23;;;;;;;;;23.75;20.00;;;;;;;;4998102;28;51396;-69
2022/07/22 03:07:48;;;;;;;;;18.50;18.50;;;;;;;;5004260;28;51431;-69
2022/07/22 03:10:13;;;;;;;;;20.67;18.67;;;;;;;;5012682;28;51112;-69
2022/07/22 03:12:39;;;;;;;;;21.50;19.50;;;;;;;;5014432;28;51810;-70
2022/07/22 03:15:04;;;;;;;;;19.25;18.75;;;;;;;;4997450;28;51226;-70
2022/07/22 03:17:32;;;;;;;;;22.25;21.25;;;;;;;;4996338;28;51343;-69
2022/07/22 03:19:59;;;;;;;;;19.00;19.00;;;;;;;;5011704;28;50982;-70
2022/07/22 03:22:24;;;;;;;;;20.00;17.50;;;;;;;;4999246;28;50933;-69
2022/07/22 03:24:49;;;;;;;;;21.00;19.25;;;;;;;;4994532;28;51365;-71
2022/07/22 03:27:14;;;;;;;;;20.75;20.00;;;;;;;;5001874;28;51019;-70
2022/07/22 03:29:39;;;;;;;;;19.75;19.75;;;;;;;;5010630;28;50967;-71
2022/07/22 03:32:05;;;;;;;;;13.75;13.50;;;;;;;;4999091;28;51194;-71
2022/07/22 03:34:30;;;;;;;;;18.75;18.50;;;;;;;;4993047;28;51085;-68
2022/07/22 03:36:55;;;;;;;;;18.75;17.00;;;;;;;;5003680;28;51133;-69
2022/07/22 03:39:20;;;;;;;;;18.00;17.00;;;;;;;;5010135;28;50982;-70
2022/07/22 03:41:45;;;;;;;;;19.75;17.75;;;;;;;;5013786;28;51067;-70
2022/07/22 03:44:11;;;;;;;;;19.33;18.33;;;;;;;;5003969;28;51228;-70
2022/07/22 03:46:36;;;;;;;;;20.75;19.25;;;;;;;;5011850;28;51086;-70
2022/07/22 03:49:01;;;;;;;;;18.50;17.50;;;;;;;;5001331;28;51256;-70
2022/07/22 03:51:26;;;;;;;;;19.75;18.75;;;;;;;;5005537;28;51052;-69
2022/07/22 03:53:51;;;;;;;;;18.25;17.50;;;;;;;;4994266;28;51241;-70
2022/07/22 03:56:17;;;;;;;;;18.50;17.25;;;;;;;;5001681;28;51127;-68
2022/07/22 03:58:42;;;;;;;;;18.75;18.00;;;;;;;;4995725;28;51046;-69
2022/07/22 04:01:07;;;;;;;;;17.75;14.75;;;;;;;;5004065;28;51366;-73
2022/07/22 04:03:32;;;;;;;;;19.00;17.25;;;;;;;;5011579;28;51157;-72
2022/07/22 04:05:58;;;;;;;;;20.00;20.00;;;;;;;;5032951;28;51117;-70
2022/07/22 04:08:23;;;;;;;;;20.75;20.00;;;;;;;;5047198;28;50893;-73
2022/07/22 04:10:48;;;;;;;;;18.75;17.25;;;;;;;;5053715;28;50871;-72
2022/07/22 04:13:14;;;;;;;;;18.75;18.75;;;;;;;;5032158;28;51025;-71
2022/07/22 04:15:39;;;;;;;;;20.75;19.25;;;;;;;;5030436;28;52071;-71
2022/07/22 04:18:04;;;;;;;;;23.75;21.25;;;;;;;;5027599;28;51072;-71
2022/07/22 04:20:29;;;;;;;;;21.00;19.00;;;;;;;;5015293;28;51133;-71
2022/07/22 04:22:54;;;;;;;;;18.75;18.75;;;;;;;;5032548;28;51344;-72
2022/07/22 04:25:20;;;;;;;;;19.25;19.25;;;;;;;;5015108;28;53969;-71
2022/07/22 04:27:45;;;;;;;;;14.00;14.00;;;;;;;;5022896;28;50982;-71
2022/07/22 04:30:11;;;;;;;;;18.25;17.50;;;;;;;;5033480;28;51103;-72
2022/07/22 04:32:36;;;;;;;;;21.50;20.00;;;;;;;;5015851;28;51039;-72
2022/07/22 04:35:01;;;;;;;;;19.75;19.50;;;;;;;;5030867;28;51934;-72
2022/07/22 04:37:26;;;;;;;;;17.25;16.00;;;;;;;;5032905;28;50904;-70
2022/07/22 04:39:51;;;;;;;;;21.50;20.00;;;;;;;;5032368;28;51093;-71
2022/07/22 04:42:17;;;;;;;;;19.00;18.75;;;;;;;;5014922;28;50912;-71
2022/07/22 04:44:44;;;;;;;;;20.00;19.50;;;;;;;;5033080;28;52142;-71
2022/07/22 04:47:09;;;;;;;;;19.00;19.00;;;;;;;;5032763;28;51056;-71
2022/07/22 04:49:34;;;;;;;;;18.00;17.33;;;;;;;;5038278;28;51088;-71
2022/07/22 04:52:00;;;;;;;;;17.00;16.33;;;;;;;;5031912;28;52075;-71
2022/07/22 04:54:25;;;;;;;;;18.25;18.25;;;;;;;;5042853;28;51832;-70
2022/07/22 04:56:50;;;;;;;;;18.75;18.00;;;;;;;;5033344;28;51213;-70
2022/07/22 04:59:15;;;;;;;;;16.67;16.33;;;;;;;;5031538;28;51602;-70
2022/07/22 05:01:40;;;;;;;;;19.33;19.33;;;;;;;;5032456;28;51342;-70
2022/07/22 05:04:06;;;;;;;;;15.00;13.75;;;;;;;;5023425;28;51848;-70
2022/07/22 05:06:31;;;;;;;;;16.00;16.00;;;;;;;;5013071;28;51151;-71
2022/07/22 05:08:56;;;;;;;;;18.50;17.50;;;;;;;;5012769;28;50984;-70
2022/07/22 05:11:21;;;;;;;;;18.50;17.75;;;;;;;;5033065;28;50930;-72
2022/07/22 05:13:46;;;;;;;;;15.00;15.00;;;;;;;;5026287;28;52242;-71
2022/07/22 05:16:12;;;;;;;;;21.00;20.00;;;;;;;;5005338;28;51035;-70
2022/07/22 05:18:37;;;;;;;;;19.00;19.00;;;;;;;;5010473;28;51162;-70
2022/07/22 05:21:03;;;;;;;;;18.00;17.00;;;;;;;;5011907;28;51041;-69
2022/07/22 05:23:28;;;;;;;;;21.33;21.33;;;;;;;;5011226;28;51061;-72
2022/07/22 05:25:53;;;;;;;;;15.67;15.67;;;;;;;;5012576;28;50960;-71
2022/07/22 05:28:19;;;;;;;;;17.67;15.67;;;;;;;;5012253;28;51151;-71
2022/07/22 05:30:44;;;;;;;;;17.25;17.25;;;;;;;;5012380;28;51273;-70
2022/07/22 05:33:09;;;;;;;;;13.33;13.33;;;;;;;;5011358;28;52211;-71
2022/07/22 05:35:35;;;;;;;;;15.00;14.67;;;;;;;;5011693;28;51016;-71
2022/07/22 05:38:00;;;;;;;;;16.00;16.00;;;;;;;;5011933;28;51021;-70
2022/07/22 05:40:25;;;;;;;;;14.00;14.00;;;;;;;;5012419;28;50850;-71
2022/07/22 05:42:50;;;;;;;;;17.33;16.00;;;;;;;;5010692;28;51031;-71
2022/07/22 05:45:16;;;;;;;;;17.33;17.00;;;;;;;;5012638;28;50986;-70
2022/07/22 05:47:41;;;;;;;;;14.00;12.33;;;;;;;;5012169;28;50919;-70
2022/07/22 05:50:06;;;;;;;;;16.67;15.67;;;;;;;;5013023;28;51046;-71
2022/07/22 05:52:32;;;;;;;;;17.67;16.67;;;;;;;;5017732;28;52136;-64
2022/07/22 05:54:59;;;;;;;;;17.00;17.00;;;;;;;;5031271;28;51177;-64
2022/07/22 05:57:24;;;;;;;;;16.67;15.33;;;;;;;;5019667;28;51219;-65
2022/07/22 05:59:49;;;;;;;;;17.00;15.00;;;;;;;;5011541;28;51085;-65
2022/07/22 06:02:15;;;;;;;;;15.33;15.33;;;;;;;;5008188;28;53822;-65
2022/07/22 06:04:40;;;;;;;;;16.00;15.50;;;;;;;;5011363;28;51282;-64
2022/07/22 06:07:06;;;;;;;;;19.75;19.75;;;;;;;;5011375;28;51013;-65
2022/07/22 06:09:31;;;;;;;;;17.67;17.00;;;;;;;;5006667;28;51604;-65
2022/07/22 06:11:56;;;;;;;;;16.00;15.33;;;;;;;;5013471;28;52408;-66
2022/07/22 06:14:22;;;;;;;;;17.33;16.33;;;;;;;;5013940;28;51089;-65
2022/07/22 06:16:47;;;;;;;;;15.00;15.00;;;;;;;;5018547;28;50927;-66
2022/07/22 06:19:12;;;;;;;;;19.00;19.00;;;;;;;;5012172;28;51298;-65
2022/07/22 06:21:38;;;;;;;;;21.25;20.50;;;;;;;;5016574;28;52008;-65
2022/07/22 06:24:04;;;;;;;;;20.25;20.00;;;;;;;;5005747;28;51029;-66
2022/07/22 06:26:29;;;;;;;;;19.75;19.25;;;;;;;;5018287;28;51764;-64
2022/07/22 06:28:54;;;;;;;;;20.00;19.75;;;;;;;;5012284;28;51408;-65
2022/07/22 06:31:22;;;;;;;;;20.33;18.33;;;;;;;;5012408;28;51265;-66
2022/07/22 06:33:47;;;;;;;;;19.50;17.50;;;;;;;;5013564;28;51255;-64
2022/07/22 06:36:14;;;;;;;;;15.75;15.75;;;;;;;;5014370;28;50845;-65
2022/07/22 06:38:39;;;;;;;;;16.00;14.67;;;;;;;;5014542;28;51004;-64
2022/07/22 06:41:04;;;;;;;;;17.67;16.33;;;;;;;;5014097;28;52038;-66
2022/07/22 06:43:29;;;;;;;;;19.33;18.00;;;;;;;;5014023;28;50995;-65
2022/07/22 06:45:54;;;;;;;;;19.00;19.00;;;;;;;;5015243;28;51078;-66
2022/07/22 06:48:20;;;;;;;;;22.25;20.75;;;;;;;;5034540;28;50947;-66
2022/07/22 06:50:45;;;;;;;;;15.67;15.67;;;;;;;;5030609;28;51889;-65
2022/07/22 06:53:10;;;;;;;;;17.00;16.00;;;;;;;;5024909;28;50954;-65
2022/07/22 06:55:36;;;;;;;;;17.33;16.67;;;;;;;;5034942;28;51073;-65
2022/07/22 06:58:01;;;;;;;;;19.00;19.00;;;;;;;;5016535;28;51032;-65
2022/07/22 07:00:26;;;;;;;;;19.00;19.00;;;;;;;;5026934;28;51056;-67
2022/07/22 07:02:51;;;;;;;;;14.33;14.33;;;;;;;;5016949;28;50935;-64
2022/07/22 07:05:17;;;;;;;;;20.00;19.75;;;;;;;;5033818;28;51153;-64
2022/07/22 07:07:42;;;;;;;;;20.50;19.00;;;;;;;;5034150;28;51155;-65
2022/07/22 07:10:16;;;;;;;;;20.33;18.33;;;;;;;;5016005;28;51074;-66
2022/07/22 07:12:42;;;;;;;;;17.67;17.00;;;;;;;;5014203;28;50966;-65
2022/07/22 07:15:08;;;;;;;;;18.67;16.67;;;;;;;;4999632;28;50981;-65
2022/07/22 07:17:33;;;;;;;;;20.00;18.33;;;;;;;;5015822;28;51233;-65
2022/07/22 07:19:58;;;;;;;;;16.25;15.75;;;;;;;;5013218;28;52017;-65
2022/07/22 07:22:23;;;;;;;;;19.00;18.00;;;;;;;;5015933;28;51182;-66
2022/07/22 07:24:49;;;;;;;;;20.00;19.00;;;;;;;;5034438;28;50967;-65
2022/07/22 07:27:14;;;;;;;;;17.00;17.00;;;;;;;;5034851;28;51021;-64
2022/07/22 07:29:39;;;;;;;;;19.67;19.67;;;;;;;;5035409;28;52162;-66
2022/07/22 07:32:04;;;;;;;;;18.67;18.67;;;;;;;;5017555;28;51112;-66
2022/07/22 07:34:30;;;;;;;;;19.33;18.67;;;;;;;;5033781;28;51007;-65
2022/07/22 07:36:55;;;;;;;;;18.25;18.25;;;;;;;;5034258;28;51069;-65
2022/07/22 07:39:20;;;;;;;;;19.75;19.25;;;;;;;;5033914;28;51217;-64
2022/07/22 07:41:46;;;;;;;;;18.75;16.75;;;;;;;;5033900;28;51012;-64
2022/07/22 07:44:11;;;;;;;;;23.00;23.00;;;;;;;;5012967;28;51043;-65
2022/07/22 07:46:36;;;;;;;;;20.25;19.75;;;;;;;;5014298;28;50943;-65
2022/07/22 07:49:01;;;;;;;;;22.25;21.50;;;;;;;;5000952;28;51175;-65
2022/07/22 07:51:27;;;;;;;;;18.25;17.75;;;;;;;;5016649;28;50933;-65
2022/07/22 07:53:52;;;;;;;;;23.75;21.00;;;;;;;;5025744;28;51049;-64
2022/07/22 07:56:17;;;;;;;;;18.00;16.50;;;;;;;;5015507;28;51170;-65
2022/07/22 07:58:43;;;;;;;;;16.67;16.67;;;;;;;;5017524;28;50920;-65
2022/07/22 08:01:08;;;;;;;;;18.67;18.33;;;;;;;;5009756;28;51060;-65
2022/07/22 08:03:34;;;;;;;;;16.00;15.00;;;;;;;;5016055;28;51023;-65
2022/07/22 08:06:00;;;;;;;;;21.67;20.00;;;;;;;;5013893;28;50905;-64
2022/07/22 08:08:26;;;;;;;;;22.00;20.00;;;;;;;;5013164;28;51303;-64
2022/07/22 08:10:51;;;;;;;;;17.33;17.00;;;;;;;;5032974;28;51060;-65
2022/07/22 08:13:17;;;;;;;;;18.67;16.67;;;;;;;;5032726;28;50917;-65
2022/07/22 08:15:42;;;;;;;;;18.33;18.00;;;;;;;;5030179;28;51322;-65
2022/07/22 08:18:07;;;;;;;;;18.00;17.67;;;;;;;;5026666;28;52241;-66
2022/07/22 08:20:35;;;;;;;;;20.33;19.67;;;;;;;;5032717;28;51053;-65
2022/07/22 08:23:00;;;;;;;;;17.00;16.67;;;;;;;;5032963;28;50899;-65
2022/07/22 08:25:25;;;;;;;;;17.00;17.00;;;;;;;;5030384;28;50911;-65
2022/07/22 08:27:51;;;;;;;;;20.00;19.00;;;;;;;;5031863;28;52161;-64
2022/07/22 08:30:17;;;;;;;;;18.00;18.00;;;;;;;;5032448;28;50974;-65
2022/07/22 08:32:42;;;;;;;;;19.00;19.00;;;;;;;;5014239;28;51027;-64
2022/07/22 08:35:08;;;;;;;;;21.00;20.00;;;;;;;;5032496;28;50790;-64
2022/07/22 08:37:34;;;;;;;;;18.67;18.00;;;;;;;;5033970;28;52023;-65
2022/07/22 08:39:59;;;;;;;;;19.67;19.67;;;;;;;;5033741;28;51045;-65
2022/07/22 08:42:25;;;;;;;;;23.25;22.25;;;;;;;;5032624;28;51099;-65
2022/07/22 08:44:51;;;;;;;;;19.00;18.75;;;;;;;;5031902;28;50946;-65
2022/07/22 08:47:20;;;;;;;;;20.33;19.67;;;;;;;;5031696;28;51227;-65
2022/07/22 08:49:45;;;;;;;;;25.00;21.25;;;;;;;;5032348;28;51056;-64
2022/07/22 08:52:10;;;;;;;;;18.25;18.25;;;;;;;;5031102;28;50996;-64
2022/07/22 08:54:36;;;;;;;;;20.50;18.25;;;;;;;;5032656;28;51013;-65
2022/07/22 08:57:01;;;;;;;;;18.50;18.50;;;;;;;;5031008;28;52175;-66
2022/07/22 08:59:26;;;;;;;;;21.00;20.00;;;;;;;;5032742;28;50942;-64
2022/07/22 09:02:02;;;;;;;;;23.00;21.50;;;;;;;;5020977;28;51284;-64
2022/07/22 09:04:27;;;;;;;;;20.50;19.25;;;;;;;;5052568;28;50884;-64
2022/07/22 09:06:52;;;;;;;;;21.00;21.00;;;;;;;;5052034;28;51042;-65
2022/07/22 09:09:28;;;;;;;;;18.25;17.50;;;;;;;;5043876;28;51108;-66
2022/07/22 09:12:03;;;;;;;;;18.50;18.50;;;;;;;;5032091;28;50969;-65
2022/07/22 09:14:42;;;;;;;;;19.33;18.67;;;;;;;;5032098;28;50963;-66
2022/07/22 09:17:21;;;;;;;;;20.25;20.25;;;;;;;;5020253;28;52752;-66
2022/07/22 09:19:46;;;;;;;;;24.00;22.25;;;;;;;;5027077;28;51062;-65
2022/07/22 09:22:11;;;;;;;;;21.50;21.00;;;;;;;;5031355;28;51148;-65
2022/07/22 09:24:37;;;;;;;;;20.67;20.00;;;;;;;;5032489;28;50833;-64
2022/07/22 09:27:02;;;;;;;;;22.50;21.50;;;;;;;;5031417;28;51568;-66
2022/07/22 09:29:28;;;;;;;;;22.75;22.75;;;;;;;;5020210;28;51032;-65
2022/07/22 09:31:53;;;;;;;;;22.00;20.50;;;;;;;;5052158;28;51190;-65
2022/07/22 09:34:28;;;;;;;;;23.50;22.00;;;;;;;;5035262;28;51387;-64
2022/07/22 09:36:58;;;;;;;;;20.25;20.25;;;;;;;;5031773;28;51891;-64
2022/07/22 09:39:30;;;;;;;;;27.75;24.00;;;;;;;;5031402;28;51036;-64
2022/07/22 09:42:00;;;;;;;;;22.25;20.50;;;;;;;;5031285;28;51070;-63
2022/07/22 09:44:25;;;;;;;;;23.25;23.00;;;;;;;;5029778;28;51268;-65
2022/07/22 09:46:51;;;;;;;;;21.50;21.25;;;;;;;;5031226;28;51121;-66
2022/07/22 09:49:31;;;;;;;;;21.25;21.25;;;;;;;;5020129;28;51148;-65
2022/07/22 09:51:56;;;;;;;;;22.25;20.25;;;;;;;;5031114;28;51259;-66
2022/07/22 09:54:22;;;;;;;;;23.75;22.00;;;;;;;;5051653;28;51126;-64
2022/07/22 09:56:47;;;;;;;;;21.67;20.33;;;;;;;;5042413;28;51369;-66
2022/07/22 09:59:12;;;;;;;;;21.75;20.00;;;;;;;;5031410;28;50895;-65
2022/07/22 10:01:38;;;;;;;;;20.75;20.75;;;;;;;;5018948;28;51154;-65
2022/07/22 10:04:05;;;;;;;;;23.50;20.75;;;;;;;;5009496;28;51312;-65
2022/07/22 10:06:31;;;;;;;;;23.75;23.75;;;;;;;;5010065;28;52082;-64
2022/07/22 10:08:56;;;;;;;;;25.00;22.75;;;;;;;;5011500;28;50992;-66
2022/07/22 10:11:21;;;;;;;;;21.00;21.00;;;;;;;;5011509;28;51089;-65
2022/07/22 10:13:47;;;;;;;;;24.75;22.75;;;;;;;;5010983;28;51340;-65
2022/07/22 10:16:13;;;;;;;;;24.25;23.25;;;;;;;;5005776;28;50905;-65
2022/07/22 10:18:44;;;;;;;;;26.00;25.75;;;;;;;;5009911;28;51081;-66
2022/07/22 10:21:09;;;;;;;;;25.25;24.25;;;;;;;;5010345;28;51151;-64
2022/07/22 10:23:35;;;;;;;;;23.75;23.00;;;;;;;;5011239;28;51269;-66
2022/07/22 10:26:01;;;;;;;;;23.75;23.00;;;;;;;;5010773;28;50909;-65
2022/07/22 10:28:28;;;;;;;;;23.25;21.75;;;;;;;;5017669;28;50996;-67
2022/07/22 10:31:14;;;;;;;;;25.25;24.00;;;;;;;;5016510;28;51059;-66
2022/07/22 10:33:40;;;;;;;;;23.50;22.50;;;;;;;;5011552;28;51341;-66
2022/07/22 10:36:05;;;;;;;;;24.25;23.50;;;;;;;;5011166;28;51300;-65
2022/07/22 10:38:31;;;;;;;;;29.50;28.25;;;;;;;;5010717;28;51079;-65
2022/07/22 10:40:59;;;;;;;;;23.00;22.75;;;;;;;;5011715;28;51109;-68
2022/07/22 10:43:28;;;;;;;;;24.75;24.00;;;;;;;;5008844;28;51740;-67
2022/07/22 10:45:55;;;;;;;;;28.00;28.00;;;;;;;;5010589;28;52021;-66
2022/07/22 10:48:21;;;;;;;;;30.00;29.75;;;;;;;;5011123;28;50877;-65
2022/07/22 10:50:57;;;;;;;;;25.00;24.00;;;;;;;;5013253;28;51365;-65
2022/07/22 10:53:23;;;;;;;;;27.25;26.75;;;;;;;;5022671;28;51019;-63
2022/07/22 10:55:58;;;;;;;;;31.00;29.25;;;;;;;;5014446;28;51962;-63
2022/07/22 10:58:32;;;;;;;;;22.25;19.75;;;;;;;;5014329;28;50920;-63
2022/07/22 11:01:02;;;;;;;;;27.75;27.00;;;;;;;;5007366;28;51119;-63
2022/07/22 11:03:28;;;;;;;;;27.50;26.75;;;;;;;;5022530;28;51244;-63
2022/07/22 11:05:55;;;;;;;;;23.25;22.50;;;;;;;;5022871;28;52138;-64
2022/07/22 11:08:21;;;;;;;;;25.00;25.00;;;;;;;;5014497;28;51193;-63
2022/07/22 11:10:47;;;;;;;;;24.00;22.50;;;;;;;;5013964;28;50975;-64
2022/07/22 11:13:12;;;;;;;;;29.00;28.00;;;;;;;;5014657;28;50921;-64
2022/07/22 11:15:38;;;;;;;;;30.00;27.25;;;;;;;;5018928;28;51213;-65
2022/07/22 11:18:03;;;;;;;;;29.75;28.25;;;;;;;;5013053;28;52778;-63
2022/07/22 11:20:29;;;;;;;;;27.25;27.25;;;;;;;;5013795;28;50936;-63
2022/07/22 11:22:54;;;;;;;;;26.50;26.50;;;;;;;;5013589;28;51309;-64
2022/07/22 11:25:25;;;;;;;;;25.25;24.75;;;;;;;;5021328;28;51130;-63
2022/07/22 11:27:52;;;;;;;;;25.25;25.25;;;;;;;;5018662;28;51084;-65
2022/07/22 11:30:17;;;;;;;;;25.00;23.25;;;;;;;;5013287;28;51070;-64
2022/07/22 11:32:43;;;;;;;;;25.00;24.75;;;;;;;;5013721;28;51280;-65
2022/07/22 11:35:11;;;;;;;;;26.00;25.25;;;;;;;;5012982;28;51949;-65
2022/07/22 11:37:37;;;;;;;;;25.75;25.50;;;;;;;;5025549;28;50968;-65
2022/07/22 11:40:05;;;;;;;;;25.50;25.00;;;;;;;;5012121;28;51060;-65
2022/07/22 11:42:30;;;;;;;;;24.75;24.50;;;;;;;;5013256;28;51086;-64
2022/07/22 11:44:56;;;;;;;;;24.25;24.00;;;;;;;;5020591;28;52112;-68
2022/07/22 11:47:21;;;;;;;;;30.25;28.75;;;;;;;;5030490;28;51054;-67
2022/07/22 11:49:50;;;;;;;;;26.50;25.75;;;;;;;;5004218;28;50903;-71
2022/07/22 11:52:16;;;;;;;;;26.75;26.00;;;;;;;;5033932;28;51210;-74
2022/07/22 11:54:43;;;;;;;;;29.00;27.25;;;;;;;;5024290;28;51139;-73
2022/07/22 11:57:08;;;;;;;;;26.50;26.00;;;;;;;;5012726;28;50964;-74
2022/07/22 11:59:35;;;;;;;;;21.75;21.00;;;;;;;;5020276;28;51071;-72
2022/07/22 12:02:00;;;;;;;;;24.25;24.25;;;;;;;;5004530;28;51066;-73
2022/07/22 12:04:26;;;;;;;;;22.50;22.50;;;;;;;;5020357;28;53050;-73
2022/07/22 12:06:54;;;;;;;;;24.00;23.50;;;;;;;;5032080;28;50899;-73
2022/07/22 12:09:19;;;;;;;;;28.25;26.50;;;;;;;;5018410;28;51017;-74
2022/07/22 12:11:46;;;;;;;;;31.50;26.75;;;;;;;;5012551;28;51370;-72
2022/07/22 12:14:13;;;;;;;;;27.25;26.75;;;;;;;;5012378;28;51201;-72
2022/07/22 12:16:39;;;;;;;;;26.25;25.25;;;;;;;;5003968;28;51136;-74
2022/07/22 12:19:07;;;;;;;;;21.75;21.25;;;;;;;;5010711;28;50929;-73
2022/07/22 12:21:34;;;;;;;;;27.50;26.25;;;;;;;;5009990;28;51195;-74
2022/07/22 12:24:02;;;;;;;;;24.25;23.50;;;;;;;;5011772;28;51397;-73
2022/07/22 12:26:38;;;;;;;;;23.00;22.75;;;;;;;;5012174;28;51064;-73
2022/07/22 12:29:22;;;;;;;;;24.00;23.75;;;;;;;;5012772;28;51101;-73
2022/07/22 12:31:54;;;;;;;;;23.75;23.25;;;;;;;;5010367;28;51258;-72
2022/07/22 12:34:30;;;;;;;;;24.25;22.25;;;;;;;;5012346;28;51077;-72
2022/07/22 12:36:55;;;;;;;;;25.25;23.75;;;;;;;;5012353;28;50835;-73
2022/07/22 12:39:20;;;;;;;;;27.00;27.00;;;;;;;;5012215;28;50946;-72
2022/07/22 12:41:50;;;;;;;;;30.00;29.75;;;;;;;;5011681;28;51258;-69
2022/07/22 12:44:16;;;;;;;;;22.75;22.00;;;;;;;;5012220;28;51049;-69
2022/07/22 12:46:45;;;;;;;;;26.00;24.00;;;;;;;;5010382;28;51118;-70
2022/07/22 12:49:11;;;;;;;;;26.00;24.00;;;;;;;;5009170;28;51068;-69
2022/07/22 12:51:36;;;;;;;;;26.25;26.25;;;;;;;;5015107;28;51310;-68
2022/07/22 12:54:01;;;;;;;;;28.00;26.25;;;;;;;;5020904;28;52172;-68
2022/07/22 12:56:26;;;;;;;;;26.75;25.50;;;;;;;;5011981;28;50964;-70
2022/07/22 12:58:52;;;;;;;;;29.00;27.00;;;;;;;;5011698;28;50901;-70
2022/07/22 13:01:17;;;;;;;;;26.00;25.75;;;;;;;;5002378;28;51288;-69
2022/07/22 13:03:42;;;;;;;;;50.00;42.00;;;;;;;;5008219;28;51784;-69
2022/07/22 13:06:10;;;;;;;;;27.50;27.50;;;;;;;;5009262;28;50911;-69
2022/07/22 13:08:35;;;;;;;;;29.50;29.25;;;;;;;;5011244;28;51110;-68
2022/07/22 13:11:00;;;;;;;;;30.25;29.25;;;;;;;;5013372;28;51254;-70
2022/07/22 13:13:26;;;;;;;;;29.25;28.75;;;;;;;;5012820;28;51037;-68
2022/07/22 13:15:51;;;;;;;;;28.75;27.00;;;;;;;;5009128;28;51134;-69
2022/07/22 13:18:17;;;;;;;;;29.75;25.75;;;;;;;;5017120;28;51122;-68
2022/07/22 13:20:42;;;;;;;;;29.25;28.00;;;;;;;;5011756;28;51251;-67
2022/07/22 13:23:07;;;;;;;;;33.25;30.25;;;;;;;;5013285;28;51030;-68
2022/07/22 13:25:33;;;;;;;;;26.25;26.25;;;;;;;;5012506;28;50931;-68
2022/07/22 13:27:59;;;;;;;;;29.50;27.25;;;;;;;;5011004;28;50977;-68
2022/07/22 13:30:24;;;;;;;;;26.75;24.75;;;;;;;;5012668;28;50946;-68
2022/07/22 13:32:49;;;;;;;;;28.50;27.50;;;;;;;;5011936;28;52067;-69
2022/07/22 13:35:15;;;;;;;;;28.25;26.75;;;;;;;;5011541;28;50957;-68
2022/07/22 13:37:41;;;;;;;;;24.25;24.00;;;;;;;;5010462;28;50973;-68
2022/07/22 13:40:07;;;;;;;;;27.50;26.75;;;;;;;;5011710;28;50937;-68
2022/07/22 13:42:32;;;;;;;;;25.25;24.25;;;;;;;;5010739;28;51177;-68
2022/07/22 13:44:57;;;;;;;;;32.75;30.75;;;;;;;;5009196;28;51085;-70
2022/07/22 13:47:23;;;;;;;;;27.50;26.75;;;;;;;;5011528;28;51202;-68
2022/07/22 13:49:49;;;;;;;;;28.75;27.25;;;;;;;;5011443;28;51404;-68
2022/07/22 13:52:14;;;;;;;;;29.25;28.25;;;;;;;;5015751;28;51140;-68
2022/07/22 13:54:40;;;;;;;;;30.50;29.50;;;;;;;;5027222;28;51007;-69
2022/07/22 13:57:05;;;;;;;;;26.00;25.25;;;;;;;;5006795;28;51105;-70
2022/07/22 13:59:31;;;;;;;;;30.25;28.75;;;;;;;;5009948;28;51042;-69
2022/07/22 14:01:57;;;;;;;;;26.00;26.00;;;;;;;;4998045;28;51138;-69
2022/07/22 14:04:22;;;;;;;;;23.25;22.25;;;;;;;;5010939;28;51167;-69
2022/07/22 14:06:47;;;;;;;;;30.25;28.25;;;;;;;;5010199;28;51178;-68
2022/07/22 14:09:12;;;;;;;;;33.00;30.50;;;;;;;;5011296;28;51093;-69